Terminal Aerodrome Forecast
Issued by NWS Jackson, MS

Home | Current Version | Previous Version | Text Only | Print | Product List | Glossary On
Versions: 1 2 3 4 5 6 7 8 9 10 11 12 13 14 15 16 17 18
000
FTUS44 KJAN 292329
TAFGLH
TAF
KGLH 292329Z 3000/3024 13011KT P6SM SCT035 BKN250
     FM300800 17009KT P6SM VCTS SCT025 OVC050CB
     FM301400 20010KT P6SM OVC025
     FM301600 25009KT P6SM BKN035
     FM301800 29009KT P6SM VCTS SCT040CB=

USA.gov is the U.S. government's official web portal to all federal, state and local government web resources and services.